x

Long Island - 30 Nm South Of Islip, Ny (44025) Wave Buoy

11:50am - Tue 23rd May 2017 All times are EDT. -4 hours from GMT.

  • Sig Wave height 3.0ft
  • Swell Direction
  • Peak Period 7s
  • Average Period 5s
  • Wind
    7mph, 9mph gusts
  • Sea Temp 55°f
  • Air Temp 57°f
  • Sea Pressure 1013mb
  • Long Island - 30 Nm South Of Islip, Ny
  • Long Island - 30 Nm South Of Islip, Ny

More Historic Weather Station data

Upgrade to MSW Pro to gain access to the past 30 days of data for over 8000 Wavebouys and Weather Stations around the globe.

Join Pro

Comparision Forecast

View Surf forecast
   
Tue 05/23 11:50am 3ft 7s 5s 7 9 mph 1013mb 55f 57f
10:50am 3.5ft 8s 5s 9 9 mph 1013.1mb 55f 56f
9:50am 3ft 7s 5s 9 11 mph 1013.3mb 55f 56f
8:50am 2.5ft 5s 4s 13 16 mph 1013.3mb 55f 56f
7:50am 2.5ft 6s 4s 13 16 mph 1013.4mb 55f 57f
6:50am 2.5ft 5s 4s 11 13 mph 1013.2mb 55f 56f
5:50am 2.5ft 5s 4s 16 16 mph 1012.6mb 55f 56f
4:50am 2.5ft 5s 5s 13 16 mph 1012.4mb 55f 57f
3:50am 2.5ft 5s 5s 13 16 mph 1012.4mb 55f 56f
2:50am 2.5ft 6s 5s 4 4 mph 1012.9mb 55f 56f
1:50am 2.5ft 5s 5s 7 9 mph 1013.4mb 55f 56f
12:50am 2.5ft 5s 5s 2 4 mph 1013.2mb 55f 56f
Mon 05/22 11:50pm 3ft 6s 5s 4 7 mph 1013.5mb 55f 56f
10:50pm 2.5ft 6s 5s 7 9 mph 1014mb 55f 56f
9:50pm 2.5ft 6s 5s 9 11 mph 1014.3mb 55f 56f
8:50pm 3ft 6s 5s 13 16 mph 1013.7mb 55f 57f
7:50pm 3ft 6s 5s 7 9 mph 1014.1mb 55f 56f
6:50pm 3ft 6s 5s 9 9 mph 1014.5mb 55f 56f
5:50pm 2.5ft 6s 4s 11 13 mph 1014.9mb 55f 56f
4:50pm 3ft 6s 4s 7 9 mph 1015.3mb 55f 56f
3:50pm 3ft 4s 4s 13 16 mph 1015.8mb 55f 57f
2:50pm 3ft 4s 4s 13 16 mph 1016.7mb 55f 56f
1:50pm 3ft 4s 4s 16 18 mph 1017.3mb 54f 55f
12:50pm 3.5ft 4s 4s 18 20 mph 1017.8mb 55f 54f
11:50am 3ft 4s 4s 16 18 mph 1019mb 55f 54f
10:50am 3ft 3s 4s 16 18 mph 1019.8mb 55f 54f
9:50am 2.5ft 7s 4s 13 16 mph 1020.7mb 55f 54f
8:50am 2.5ft 6s 4s 13 16 mph 1021.1mb 55f 55f
7:50am 2.5ft 6s 5s 13 18 mph 1021.1mb 55f 55f
6:50am 2ft 6s 4s 9 11 mph 1021.6mb 55f 54f
5:50am 2.5ft 6s 4s 9 9 mph 1021.9mb 55f 54f
4:50am 2.5ft 6s 4s 9 11 mph 1021.5mb 55f 54f
3:50am 2.5ft 5s 4s 9 11 mph 1021.7mb 55f 55f
2:50am 2.5ft 5s 4s 11 13 mph 1022.1mb 55f 54f
1:50am 2.5ft 5s 4s 11 11 mph 1022.7mb 55f 55f
12:50am 2.5ft 6s 4s 11 11 mph 1023.5mb 55f 55f
Sun 05/21 11:50pm 2.5ft 6s 4s 9 11 mph 1024.5mb 55f 55f
10:50pm 2.5ft 7s 4s 13 16 mph 1024.4mb 55f 54f
9:50pm 2ft 6s 4s 11 13 mph 1025.1mb 55f 54f
8:50pm 2.5ft 5s 4s 9 13 mph 1025.5mb 55f 54f
7:50pm 2.5ft 6s 4s 9 9 mph 1025.8mb 55f 54f
6:50pm 2.5ft 5s 4s 11 11 mph 1025.7mb 55f 54f
5:50pm 2.5ft 6s 4s 13 13 mph 1025.5mb 55f 54f
4:50pm 2.5ft 7s 5s 11 13 mph 1026.4mb 55f 54f
3:50pm 2.5ft 6s 4s 9 11 mph 1027mb 55f 54f
2:50pm 2.5ft 5s 4s 7 9 mph 1027.7mb 55f 54f
1:50pm 2.5ft 6s 4s 11 13 mph 1027.4mb 55f 54f
12:50pm 2.5ft 7s 4s 11 13 mph 1028.1mb 55f 54f
11:50am 2.5ft 6s 4s 11 13 mph 1028.9mb 55f 54f
10:50am 2.5ft 6s 4s 11 13 mph 1028.8mb 54f 54f
9:50am 2.5ft 7s 4s 13 13 mph 1028.4mb 54f 54f
8:50am 2.5ft 6s 5s 13 16 mph 1028mb 54f 54f
7:50am 2.5ft 5s 5s 11 13 mph 1027.9mb 54f 54f
6:50am 2.5ft 6s 5s 7 9 mph 1028mb 54f 54f
5:50am 2.5ft 6s 5s 7 7 mph 1027.5mb 54f 54f
4:50am 2.5ft 6s 5s 7 7 mph 1026.5mb 54f 53f
3:50am 2.5ft 6s 5s 4 7 mph 1026.5mb 54f 53f
2:50am 2.5ft 6s 5s 4 4 mph 1026.6mb 54f 53f
1:50am 2.5ft 6s 5s 2 4 mph 1026.7mb 54f 53f
12:50am 2.5ft 6s 5s  -  2 mph 1027.2mb 54f 53f
Sat 05/20 11:50pm 3ft 5s 5s 7 9 mph 1027.1mb 54f 54f
10:50pm 2.5ft 5s 4s 9 11 mph 1026.8mb 54f 54f
9:50pm 2.5ft 5s 4s 9 11 mph 1026.7mb 54f 54f
8:50pm 2.5ft 5s 4s 9 9 mph 1026.4mb 54f 54f
7:50pm 3ft 6s 5s 9 11 mph 1026mb 54f 54f
6:50pm 3.5ft 6s 5s 7 9 mph 1025.6mb 54f 54f
5:50pm 3.5ft 6s 5s 9 11 mph 1025.7mb 54f 54f
4:50pm 3.5ft 5s 4s 11 13 mph 1025.7mb 54f 55f
3:50pm 3.5ft 5s 4s 13 16 mph 1025.4mb 54f 55f
2:50pm 4ft 6s 4s 13 18 mph 1025.3mb 54f 55f
1:50pm 4ft 5s 4s 11 16 mph 1025.4mb 54f 55f
12:50pm 4.5ft 6s 4s 18 22 mph 1025.1mb 54f 55f
11:50am 4ft 6s 4s 18 22 mph 1024.6mb 54f 55f
10:50am 4ft 5s 4s 20 22 mph 1024mb 54f 55f
9:50am 3.5ft 4s 4s 18 22 mph 1023.8mb 55f 56f
8:50am 3.5ft 4s 4s 18 20 mph 1023.2mb 55f 56f
7:50am 3.5ft 6s 4s 18 20 mph 1022.5mb 55f 56f
6:50am 2.5ft 6s 4s 13 18 mph 1021.7mb 55f 56f
5:50am 2.5ft 6s 4s 11 16 mph 1020.6mb 55f 56f
4:50am 2.5ft 6s 4s 16 20 mph 1018.8mb 55f 57f
3:50am 3ft 7s 5s 11 11 mph 1018.4mb 56f 59f
2:50am 3ft 7s 4s 9 11 mph 1017.4mb 56f 59f
1:50am 3ft 7s 4s 16 18 mph 1016.3mb 56f 61f
12:50am 3ft 7s 5s 13 16 mph 1016.3mb 56f 62f
Fri 05/19 11:50pm 3.5ft 7s 5s 13 13 mph 1015.3mb 56f 63f
10:50pm 3.5ft 7s 5s 11 11 mph 1014.5mb 55f 64f
9:50pm 3.5ft 7s 5s 11 16 mph 1014mb 55f 64f
8:50pm 3.5ft 7s 5s 13 16 mph 1012.2mb 55f 61f
7:50pm 4ft 7s 5s 13 16 mph 1011.4mb 55f 61f
6:50pm 4ft 7s 5s 13 16 mph 1011mb 55f 60f
5:50pm 4ft 7s 5s 16 18 mph 1010.7mb 56f 60f